createdAt,value
2018-04-22T00:04:49.212Z,90.35
2018-04-22T00:14:42.817Z,91.26
2018-04-22T00:24:40.153Z,91.16
2018-04-22T00:34:37.490Z,90.90
2018-04-22T00:44:33.035Z,91.10
2018-04-22T00:54:30.386Z,92.06
2018-04-22T01:04:27.766Z,90.84
2018-04-22T01:14:23.316Z,92.00
2018-04-22T01:24:19.444Z,92.51
2018-04-22T01:34:17.137Z,93.57
2018-04-22T01:44:15.479Z,93.06
2018-04-22T01:54:11.915Z,91.94
2018-04-22T02:04:06.509Z,95.04
2018-04-22T02:14:02.116Z,93.62
2018-04-22T02:23:58.707Z,94.02
2018-04-22T02:33:53.810Z,94.27
2018-04-22T02:43:49.732Z,93.71
2018-04-22T02:53:47.769Z,94.27
2018-04-22T03:03:45.729Z,94.72
2018-04-22T03:13:40.561Z,95.59
2018-04-22T03:23:35.887Z,94.82
2018-04-22T03:33:33.294Z,94.92
2018-04-22T03:43:29.071Z,95.13
2018-04-22T03:53:24.767Z,95.33
2018-04-22T04:03:22.154Z,95.98
2018-04-22T04:13:19.201Z,95.33
2018-04-22T04:23:15.807Z,95.74
2018-04-22T04:33:12.097Z,95.59
2018-04-22T04:43:06.567Z,96.10
2018-04-22T04:53:03.542Z,95.30
2018-04-22T05:02:58.654Z,93.99
2018-04-22T05:12:55.147Z,92.28
2018-04-22T05:22:49.365Z,90.92
2018-04-22T05:32:45.106Z,89.72
2018-04-22T05:42:42.558Z,89.18
2018-04-22T05:52:39.888Z,88.59
2018-04-22T06:02:35.800Z,84.33
2018-04-22T06:12:33.085Z,82.93
2018-04-22T06:22:31.500Z,77.98
2018-04-22T06:32:28.307Z,78.11
2018-04-22T06:42:25.865Z,73.84
2018-04-22T06:52:25.540Z,71.73
2018-04-22T07:02:24.487Z,69.32
2018-04-22T07:12:22.746Z,67.52
2018-04-22T07:22:18.435Z,63.53
2018-04-22T07:31:56.423Z,68.22
2018-04-22T07:41:33.987Z,68.85
2018-04-22T07:51:11.544Z,64.69
2018-04-22T08:00:48.943Z,65.02
2018-04-22T08:10:30.929Z,62.37
2018-04-22T08:20:00.534Z,62.04
2018-04-22T08:29:38.789Z,61.05
2018-04-22T08:39:16.522Z,60.12
2018-04-22T08:48:54.026Z,58.57
2018-04-22T08:58:32.026Z,60.50
2018-04-22T09:08:09.430Z,58.22
2018-04-22T09:17:47.446Z,58.01
2018-04-22T09:27:24.113Z,61.37
2018-04-22T09:37:01.972Z,59.32
2018-04-22T09:46:39.949Z,54.13
2018-04-22T09:56:21.746Z,56.29
2018-04-22T10:05:50.193Z,56.26
2018-04-22T10:15:27.874Z,54.87
2018-04-22T10:25:06.006Z,53.11
2018-04-22T10:34:44.097Z,47.74
2018-04-22T10:44:21.581Z,51.67
2018-04-22T10:54:00.050Z,47.59
2018-04-22T11:03:37.463Z,47.54
2018-04-22T11:13:19.570Z,47.44
2018-04-22T11:22:55.273Z,51.87
2018-04-22T11:32:32.364Z,48.54
2018-04-22T11:42:11.771Z,40.23
2018-04-22T11:51:49.838Z,41.25
2018-04-22T12:01:28.527Z,42.47
2018-04-22T12:11:02.521Z,43.73
2018-04-22T12:20:40.314Z,43.20
2018-04-22T12:30:17.963Z,47.66
2018-04-22T12:39:55.688Z,42.79
2018-04-22T12:49:33.358Z,45.23
2018-04-22T12:59:12.985Z,40.31
2018-04-22T13:08:47.331Z,42.63
2018-04-22T13:18:22.367Z,44.03
2018-04-22T13:28:01.692Z,42.85
2018-04-22T13:37:42.518Z,42.51
2018-04-22T13:47:17.873Z,47.21
2018-04-22T13:56:52.281Z,46.61
2018-04-22T14:06:27.944Z,45.07
2018-04-22T14:16:16.846Z,42.27
2018-04-22T14:25:50.900Z,38.85
2018-04-22T14:35:25.608Z,46.51
2018-04-22T14:44:52.558Z,46.87
2018-04-22T14:54:31.642Z,50.73
2018-04-22T15:04:17.649Z,40.84
2018-04-22T15:13:53.977Z,43.88
2018-04-22T15:23:31.588Z,47.16
2018-04-22T15:32:52.863Z,47.86
2018-04-22T15:42:30.681Z,53.58
2018-04-22T15:52:14.826Z,47.87
2018-04-22T16:01:44.193Z,50.73
2018-04-22T16:11:17.502Z,53.61
2018-04-22T16:20:52.444Z,59.75
2018-04-22T16:30:28.581Z,62.76
2018-04-22T16:40:05.857Z,58.69
2018-04-22T16:49:41.506Z,60.70
2018-04-22T16:59:18.318Z,60.53
2018-04-22T17:08:54.652Z,58.40
2018-04-22T17:18:31.039Z,62.45
2018-04-22T17:28:07.262Z,65.33
2018-04-22T17:37:43.438Z,68.09
2018-04-22T17:47:19.477Z,69.56
2018-04-22T17:57:14.759Z,67.00
2018-04-22T18:07:04.014Z,69.06
2018-04-22T18:16:55.412Z,70.72
2018-04-22T18:26:50.104Z,72.49
2018-04-22T18:36:46.090Z,75.06
2018-04-22T18:46:40.572Z,76.84
2018-04-22T18:56:38.334Z,77.04
2018-04-22T19:06:34.961Z,77.91
2018-04-22T19:16:30.723Z,79.36
2018-04-22T19:26:22.809Z,80.10
2018-04-22T19:36:18.783Z,81.54
2018-04-22T19:46:14.152Z,81.38
2018-04-22T19:56:06.556Z,81.62
2018-04-22T20:06:00.652Z,78.53
2018-04-22T20:15:56.535Z,78.69
2018-04-22T20:25:54.062Z,81.78
2018-04-22T20:35:46.822Z,82.62
2018-04-22T20:45:41.059Z,84.97
2018-04-22T20:55:37.510Z,86.22
2018-04-22T21:05:33.873Z,86.66
2018-04-22T21:15:28.285Z,86.97
2018-04-22T21:25:24.557Z,85.96
2018-04-22T21:35:21.627Z,87.71
2018-04-22T21:45:16.289Z,88.56
2018-04-22T21:55:13.427Z,89.91
2018-04-22T22:05:11.849Z,90.86
2018-04-22T22:15:09.480Z,91.67
2018-04-22T22:25:03.666Z,93.13
2018-04-22T22:34:58.717Z,92.02
2018-04-22T22:44:55.506Z,92.46
2018-04-22T22:54:51.231Z,92.86
2018-04-22T23:04:48.217Z,94.23
2018-04-22T23:14:43.975Z,95.03
2018-04-22T23:24:40.796Z,93.87
2018-04-22T23:34:38.134Z,94.47
2018-04-22T23:44:33.598Z,94.67
2018-04-22T23:54:29.490Z,95.53
